• Join FlightAware (Why Join?)
  • Login
  • US Flag 
11:46PM EDT


 

Airport Tracker/Info


-or-


 

Live Flight TrackerFlight Track Log ✈ VH-FKY ✈ 29-May-2012 ✈ YOLD / OLP - YPAD / ADL

Flight Track Log - Related Links

Times and Time Zones

All times are in EDT time to prevent confusion due to time zone crossing. See the VH-FKY flight status page for this flight to view local times or setup timezone preferences in your user account.

Time Position Orientation Groundspeed Altitude Reporting Facility
EDT Latitude Longitude Course Direction KTS MPH feet Rate Location/Type
07:35PM -30.6309 137.0062 162° South 12,800  Level Aus ATC (Calculated)
07:35PM -30.6309 137.0062 162° South 12,800 480 Level Aus ATC (Calculated)
07:37PM -30.6917 137.0603 164° South 12,800 480 Level Aus ATC (Calculated)
07:38PM -30.7372 137.1009 166° South 12,800 600 Level Aus ATC (Calculated)
07:39PM -30.7372 137.1009 166° South 12,800 660 Level Aus ATC (Calculated)
07:40PM -30.8200 137.1200 165° South  Level FlightAware Approximate
07:42PM -30.9422 137.2319 173° South 21,000  Level Aus ATC (Calculated)
07:43PM -31.0105 137.2409 173° South 21,000 -120 Level Aus ATC (Calculated)
07:44PM -31.0710 137.2545 174° South  Level FlightAware Approximate
07:45PM -31.1244 137.2666 175° South  Level FlightAware Approximate
07:46PM -31.1777 137.2787 177° South  Level FlightAware Approximate
07:47PM -31.2311 137.2908 181° South  Level FlightAware Approximate
07:49PM -31.3627 137.2888 176° South 267 307 20,200  Level Aus ATC (RADAR)
07:50PM -31.3985 137.2914 174° South 234 269 20,600 480 Climbing Aus ATC (RADAR)
07:50PM -31.4410 137.2970 173° South 232 267 20,800 360 Climbing Aus ATC (RADAR)
07:51PM -31.4786 137.3025 171° South 234 269 21,100 420 Climbing Aus ATC (RADAR)
07:52PM -31.5263 137.3116 174° South 234 269 21,400 180 Climbing Aus ATC (RADAR)
07:53PM -31.6312 137.3242 172° South 243 280 21,600 60 Climbing Aus ATC (RADAR)
07:54PM -31.6937 137.3347 175° South 249 287 21,600  Level Aus ATC (RADAR)
07:55PM -31.7357 137.3390 174° South 255 293 21,600  Level Aus ATC (RADAR)
07:55PM -31.7948 137.3463 174° South 258 297 21,600  Level Aus ATC (RADAR)
07:56PM -31.8363 137.3511 172° South 257 296 21,600  Level Aus ATC (RADAR)
07:57PM -31.8945 137.3602 174° South 254 292 21,600  Level Aus ATC (RADAR)
07:59PM -32.0224 137.3772 171° South 254 292 21,600  Level Aus ATC (RADAR)
07:59PM -32.0566 137.3838 171° South 254 292 21,600  Level Aus ATC (RADAR)
08:00PM -32.0962 137.3908 174° South 249 287 21,600  Level Aus ATC (RADAR)
08:01PM -32.1481 137.3971 173° South 249 287 21,600  Level Aus ATC (RADAR)
08:01PM -32.1878 137.4031 173° South 248 285 21,600  Level Aus ATC (RADAR)
08:02PM -32.2447 137.4114 173° South 247 284 21,600  Level Aus ATC (RADAR)
08:04PM -32.3707 137.4286 173° South 249 287 21,600  Level Aus ATC (RADAR)
08:05PM -32.4282 137.4364 174° South 249 287 21,600  Level Aus ATC (RADAR)
08:05PM -32.4742 137.4422 176° South 248 285 21,600  Level Aus ATC (RADAR)
08:06PM -32.5153 137.4452 170° South 253 291 21,600  Level Aus ATC (RADAR)
08:07PM -32.5714 137.4566 175° South 247 284 21,600  Level Aus ATC (RADAR)
08:08PM -32.6348 137.4632 172° South 249 287 21,600  Level Aus ATC (RADAR)
08:09PM -32.7194 137.4767 173° South 246 283 21,600  Level Aus ATC (RADAR)
08:10PM -32.7998 137.4876 174° South 250 288 21,600  Level Aus ATC (RADAR)
08:11PM -32.8456 137.4930 174° South 248 285 21,600  Level Aus ATC (RADAR)
08:11PM -32.8857 137.4982 172° South 250 288 21,600  Level Aus ATC (RADAR)
08:12PM -32.9424 137.5075 172° South 248 285 21,600  Level Aus ATC (RADAR)
08:14PM -33.0790 137.5294 162° South 249 287 21,600  Level Aus ATC (RADAR)
08:15PM -33.1438 137.5542 161° South 246 283 21,600  Level Aus ATC (RADAR)
08:16PM -33.1970 137.5762 162° South 244 281 21,600  Level Aus ATC (RADAR)
08:17PM -33.2345 137.5911 164° South 245 282 21,600  Level Aus ATC (RADAR)
08:17PM -33.2891 137.6093 162° South 245 282 21,600  Level Aus ATC (RADAR)
08:19PM -33.3791 137.6434 160° South 203 234 21,600  Level Aus ATC (RADAR)
08:20PM -33.4326 137.6669 163° South 205 236 21,600  Level Aus ATC (RADAR)
08:21PM -33.4699 137.6803 165° South 209 241 21,600  Level Aus ATC (RADAR)
08:21PM -33.5032 137.6910 162° South 211 243 21,600  Level Aus ATC (RADAR)
08:22PM -33.5500 137.7092 162° South 213 245 21,600  Level Aus ATC (RADAR)
08:24PM -33.6505 137.7478 163° South 218 251 21,600  Level Aus ATC (RADAR)
08:25PM -33.7037 137.7679 162° South 219 252 21,600  Level Aus ATC (RADAR)
08:25PM -33.7380 137.7813 164° South 223 257 21,600  Level Aus ATC (RADAR)
08:26PM -33.7775 137.7952 162° South 222 255 21,600  Level Aus ATC (RADAR)
08:27PM -33.8117 137.8082 163° South 222 255 21,600  Level Aus ATC (RADAR)
08:27PM -33.8615 137.8269 163° South 225 259 21,600  Level Aus ATC (RADAR)
08:29PM -33.9353 137.8543 163° South 223 257 21,600 -420 Level Aus ATC (RADAR)
08:30PM -33.9888 137.8746 161° South 219 252 20,800 -960 Descending Aus ATC (RADAR)
08:30PM -34.0217 137.8886 163° South 215 247 20,200 -1,080 Descending Aus ATC (RADAR)
08:31PM -34.0599 137.9031 162° South 217 250 19,500 -900 Descending Aus ATC (RADAR)
08:31PM -34.0926 137.9158 163° South 213 245 19,100 -720 Descending Aus ATC (RADAR)
08:32PM -34.1349 137.9314 162° South 211 243 18,600 -660 Descending Aus ATC (RADAR)
08:33PM -34.1892 137.9522 162° South 205 236 18,000 -660 Descending Aus ATC (RADAR)
08:34PM -34.2516 137.9764 163° South 201 231 17,200 -720 Descending Aus ATC (RADAR)
08:35PM -34.2958 137.9931 163° South 199 229 16,600 -780 Descending Aus ATC (RADAR)
08:36PM -34.3441 138.0115 163° South 198 228 15,900 -840 Descending Aus ATC (RADAR)
08:37PM -34.3740 138.0229 162° South 194 223 15,400 -960 Descending Aus ATC (RADAR)
08:37PM -34.4165 138.0396 143° Southeast 194 223 14,600 -1,200 Descending Aus ATC (RADAR)
08:38PM -34.4532 138.0727 142° Southeast 203 234 13,400 -1,800 Descending Aus ATC (RADAR)
08:39PM -34.5055 138.1218 144° Southeast 243 280 11,300 -2,100 Descending Aus ATC (RADAR)
08:40PM -34.5571 138.1675 143° Southeast 249 287 9,500 -2,040 Descending Aus ATC (RADAR)
08:41PM -34.5977 138.2052 143° Southeast 245 282 8,000 -1,920 Descending Aus ATC (RADAR)
08:41PM -34.6290 138.2335 144° Southeast 240 276 7,000 -1,800 Descending Aus ATC (RADAR)
08:42PM -34.6727 138.2727 142° Southeast 230 265 5,500 -1,200 Descending Aus ATC (RADAR)
08:43PM -34.7142 138.3123 149° Southeast 206 237 5,000 -1,200 Descending Aus ATC (RADAR)
08:44PM -34.7741 138.3562 153° Southeast 219 252 3,100 -1,260 Descending Aus ATC (RADAR)
08:45PM -34.8261 138.3891 151° Southeast 210 242 2,300 -720 Descending Aus ATC (RADAR)
08:46PM -34.8666 138.4164 151° Southeast 198 228 1,800 -240 Descending Aus ATC (RADAR)
08:47PM -34.8881 138.4308 128° Southeast 179 206 2,000 -480 Climbing Aus ATC (RADAR)
08:48PM -34.9092 138.4640 124° Southeast 144 166 1,200 -840 Descending Aus ATC (RADAR)
08:48PM -34.9257 138.4933 124° Southeast 108 124 600 -660 Descending Aus ATC (RADAR)